sensor_id;sensor_type;location;lat;lon;timestamp;temperature;humidity
23301;DHT22;11819;51.394;12.340;2022-12-20T00:01:32;4.50;92.80
23301;DHT22;11819;51.394;12.340;2022-12-20T00:04:01;4.50;92.80
23301;DHT22;11819;51.394;12.340;2022-12-20T00:06:27;4.50;92.80
23301;DHT22;11819;51.394;12.340;2022-12-20T00:08:58;4.50;92.80
23301;DHT22;11819;51.394;12.340;2022-12-20T00:11:25;4.60;92.80
23301;DHT22;11819;51.394;12.340;2022-12-20T00:13:51;4.60;92.70
23301;DHT22;11819;51.394;12.340;2022-12-20T00:16:19;4.60;92.60
23301;DHT22;11819;51.394;12.340;2022-12-20T00:18:46;4.70;92.70
23301;DHT22;11819;51.394;12.340;2022-12-20T00:21:14;4.70;92.60
23301;DHT22;11819;51.394;12.340;2022-12-20T00:23:41;4.70;92.40
23301;DHT22;11819;51.394;12.340;2022-12-20T00:26:12;4.80;92.30
23301;DHT22;11819;51.394;12.340;2022-12-20T00:28:39;4.80;92.20
23301;DHT22;11819;51.394;12.340;2022-12-20T00:31:06;4.80;92.10
23301;DHT22;11819;51.394;12.340;2022-12-20T00:33:33;4.80;91.90
23301;DHT22;11819;51.394;12.340;2022-12-20T00:36:00;4.80;91.80
23301;DHT22;11819;51.394;12.340;2022-12-20T00:38:26;4.80;91.80
23301;DHT22;11819;51.394;12.340;2022-12-20T00:43:25;4.80;91.70
23301;DHT22;11819;51.394;12.340;2022-12-20T00:45:50;4.80;91.70
23301;DHT22;11819;51.394;12.340;2022-12-20T00:48:16;4.80;91.70
23301;DHT22;11819;51.394;12.340;2022-12-20T00:50:42;4.80;91.70
23301;DHT22;11819;51.394;12.340;2022-12-20T00:53:07;4.80;91.60
23301;DHT22;11819;51.394;12.340;2022-12-20T00:55:39;4.80;91.70
23301;DHT22;11819;51.394;12.340;2022-12-20T00:58:05;4.80;91.70
23301;DHT22;11819;51.394;12.340;2022-12-20T01:00:31;4.70;91.60
23301;DHT22;11819;51.394;12.340;2022-12-20T01:02:56;4.70;91.60
23301;DHT22;11819;51.394;12.340;2022-12-20T01:05:22;4.70;91.70
23301;DHT22;11819;51.394;12.340;2022-12-20T01:07:47;4.70;91.70
23301;DHT22;11819;51.394;12.340;2022-12-20T01:10:13;4.70;91.70
23301;DHT22;11819;51.394;12.340;2022-12-20T01:12:39;4.70;91.70
23301;DHT22;11819;51.394;12.340;2022-12-20T01:15:05;4.70;91.70
23301;DHT22;11819;51.394;12.340;2022-12-20T01:17:31;4.70;91.70
23301;DHT22;11819;51.394;12.340;2022-12-20T01:19:56;4.80;91.70
23301;DHT22;11819;51.394;12.340;2022-12-20T01:22:22;4.80;91.70
23301;DHT22;11819;51.394;12.340;2022-12-20T01:24:48;4.80;91.70
23301;DHT22;11819;51.394;12.340;2022-12-20T01:27:13;4.80;91.70
23301;DHT22;11819;51.394;12.340;2022-12-20T01:29:39;4.80;91.80
23301;DHT22;11819;51.394;12.340;2022-12-20T01:32:05;4.80;91.80
23301;DHT22;11819;51.394;12.340;2022-12-20T01:34:31;4.80;91.70
23301;DHT22;11819;51.394;12.340;2022-12-20T01:36:56;4.90;91.80
23301;DHT22;11819;51.394;12.340;2022-12-20T01:39:22;4.90;91.80
23301;DHT22;11819;51.394;12.340;2022-12-20T01:41:48;4.90;91.80
23301;DHT22;11819;51.394;12.340;2022-12-20T01:46:44;4.90;91.70
23301;DHT22;11819;51.394;12.340;2022-12-20T01:49:21;4.90;91.70
23301;DHT22;11819;51.394;12.340;2022-12-20T01:54:48;4.90;91.70
23301;DHT22;11819;51.394;12.340;2022-12-20T01:57:30;4.90;91.80
23301;DHT22;11819;51.394;12.340;2022-12-20T01:59:57;4.90;91.80
23301;DHT22;11819;51.394;12.340;2022-12-20T02:02:24;4.90;91.80
23301;DHT22;11819;51.394;12.340;2022-12-20T02:04:50;4.80;91.80
23301;DHT22;11819;51.394;12.340;2022-12-20T02:07:24;4.90;91.80
23301;DHT22;11819;51.394;12.340;2022-12-20T02:09:51;4.90;91.80
23301;DHT22;11819;51.394;12.340;2022-12-20T02:12:20;4.90;91.90
23301;DHT22;11819;51.394;12.340;2022-12-20T02:28:53;4.90;91.80
23301;DHT22;11819;51.394;12.340;2022-12-20T02:31:26;4.90;91.90
23301;DHT22;11819;51.394;12.340;2022-12-20T02:33:55;5.00;91.90
23301;DHT22;11819;51.394;12.340;2022-12-20T02:36:22;5.00;91.90
23301;DHT22;11819;51.394;12.340;2022-12-20T02:38:51;5.00;91.90
23301;DHT22;11819;51.394;12.340;2022-12-20T02:41:21;5.00;91.90
23301;DHT22;11819;51.394;12.340;2022-12-20T02:43:53;5.00;92.00
23301;DHT22;11819;51.394;12.340;2022-12-20T02:46:38;5.00;92.10
23301;DHT22;11819;51.394;12.340;2022-12-20T02:49:09;5.00;92.20
23301;DHT22;11819;51.394;12.340;2022-12-20T02:51:37;5.00;92.50
23301;DHT22;11819;51.394;12.340;2022-12-20T02:54:03;4.90;92.70
23301;DHT22;11819;51.394;12.340;2022-12-20T02:56:46;4.90;92.90
23301;DHT22;11819;51.394;12.340;2022-12-20T02:59:21;4.90;93.10
23301;DHT22;11819;51.394;12.340;2022-12-20T03:01:53;4.90;93.30
23301;DHT22;11819;51.394;12.340;2022-12-20T03:04:23;4.90;93.40
23301;DHT22;11819;51.394;12.340;2022-12-20T03:07:05;4.90;93.70
23301;DHT22;11819;51.394;12.340;2022-12-20T03:09:34;4.90;93.90
23301;DHT22;11819;51.394;12.340;2022-12-20T03:12:01;4.80;94.10
23301;DHT22;11819;51.394;12.340;2022-12-20T03:14:29;4.90;94.40
23301;DHT22;11819;51.394;12.340;2022-12-20T03:16:57;4.80;94.60
23301;DHT22;11819;51.394;12.340;2022-12-20T03:19:23;4.80;94.80
23301;DHT22;11819;51.394;12.340;2022-12-20T03:21:49;4.80;95.00
23301;DHT22;11819;51.394;12.340;2022-12-20T03:24:15;4.80;95.10
23301;DHT22;11819;51.394;12.340;2022-12-20T03:26:42;4.80;95.20
23301;DHT22;11819;51.394;12.340;2022-12-20T03:29:08;4.80;95.40
23301;DHT22;11819;51.394;12.340;2022-12-20T03:31:35;4.80;95.50
23301;DHT22;11819;51.394;12.340;2022-12-20T03:34:02;4.80;95.50
23301;DHT22;11819;51.394;12.340;2022-12-20T03:36:28;4.80;95.70
23301;DHT22;11819;51.394;12.340;2022-12-20T03:38:58;4.80;95.70
23301;DHT22;11819;51.394;12.340;2022-12-20T03:41:26;4.80;95.80
23301;DHT22;11819;51.394;12.340;2022-12-20T03:43:52;4.80;95.90
23301;DHT22;11819;51.394;12.340;2022-12-20T03:46:19;4.80;95.90
23301;DHT22;11819;51.394;12.340;2022-12-20T03:48:45;4.80;95.90
23301;DHT22;11819;51.394;12.340;2022-12-20T03:51:11;4.80;96.00
23301;DHT22;11819;51.394;12.340;2022-12-20T03:53:37;4.80;96.00
23301;DHT22;11819;51.394;12.340;2022-12-20T03:56:03;4.80;96.10
23301;DHT22;11819;51.394;12.340;2022-12-20T03:58:29;4.80;96.10
23301;DHT22;11819;51.394;12.340;2022-12-20T04:00:56;4.80;96.20
23301;DHT22;11819;51.394;12.340;2022-12-20T04:03:38;4.80;96.30
23301;DHT22;11819;51.394;12.340;2022-12-20T04:06:03;4.80;96.30
23301;DHT22;11819;51.394;12.340;2022-12-20T04:08:29;4.80;96.30
23301;DHT22;11819;51.394;12.340;2022-12-20T04:10:55;4.80;96.40
23301;DHT22;11819;51.394;12.340;2022-12-20T04:13:47;4.80;96.40
23301;DHT22;11819;51.394;12.340;2022-12-20T04:16:15;4.80;96.40
23301;DHT22;11819;51.394;12.340;2022-12-20T04:18:42;4.80;96.40
23301;DHT22;11819;51.394;12.340;2022-12-20T04:21:10;4.80;96.40
23301;DHT22;11819;51.394;12.340;2022-12-20T04:23:41;4.80;96.50
23301;DHT22;11819;51.394;12.340;2022-12-20T04:26:09;4.80;96.50
23301;DHT22;11819;51.394;12.340;2022-12-20T04:28:35;4.80;96.50
23301;DHT22;11819;51.394;12.340;2022-12-20T04:31:02;4.80;96.40
23301;DHT22;11819;51.394;12.340;2022-12-20T04:33:30;4.90;96.40
23301;DHT22;11819;51.394;12.340;2022-12-20T04:35:56;4.90;96.40
23301;DHT22;11819;51.394;12.340;2022-12-20T04:38:23;4.90;96.40
23301;DHT22;11819;51.394;12.340;2022-12-20T04:40:52;4.90;96.30
23301;DHT22;11819;51.394;12.340;2022-12-20T04:43:19;4.90;96.30
23301;DHT22;11819;51.394;12.340;2022-12-20T04:45:49;4.90;96.30
23301;DHT22;11819;51.394;12.340;2022-12-20T04:48:16;4.90;96.30
23301;DHT22;11819;51.394;12.340;2022-12-20T04:50:42;4.90;96.30
23301;DHT22;11819;51.394;12.340;2022-12-20T04:53:10;4.90;96.30
23301;DHT22;11819;51.394;12.340;2022-12-20T04:55:54;4.90;96.30
23301;DHT22;11819;51.394;12.340;2022-12-20T04:58:21;4.90;96.30
23301;DHT22;11819;51.394;12.340;2022-12-20T05:00:47;4.90;96.30
23301;DHT22;11819;51.394;12.340;2022-12-20T05:03:24;4.90;96.30
23301;DHT22;11819;51.394;12.340;2022-12-20T05:05:50;4.90;96.30
23301;DHT22;11819;51.394;12.340;2022-12-20T05:08:16;4.90;96.30
23301;DHT22;11819;51.394;12.340;2022-12-20T05:10:43;4.90;96.30
23301;DHT22;11819;51.394;12.340;2022-12-20T05:13:09;4.90;96.30
23301;DHT22;11819;51.394;12.340;2022-12-20T05:15:39;5.00;96.40
23301;DHT22;11819;51.394;12.340;2022-12-20T05:18:05;5.00;96.40
23301;DHT22;11819;51.394;12.340;2022-12-20T05:20:54;5.00;96.40
23301;DHT22;11819;51.394;12.340;2022-12-20T05:23:43;5.00;96.40
23301;DHT22;11819;51.394;12.340;2022-12-20T05:26:33;5.00;96.40
23301;DHT22;11819;51.394;12.340;2022-12-20T05:29:01;5.10;96.50
23301;DHT22;11819;51.394;12.340;2022-12-20T05:31:27;5.10;96.60
23301;DHT22;11819;51.394;12.340;2022-12-20T05:33:53;5.20;96.60
23301;DHT22;11819;51.394;12.340;2022-12-20T05:36:20;5.20;96.60
23301;DHT22;11819;51.394;12.340;2022-12-20T05:38:47;5.20;96.80
23301;DHT22;11819;51.394;12.340;2022-12-20T05:41:16;5.30;96.50
23301;DHT22;11819;51.394;12.340;2022-12-20T05:43:46;5.30;96.50
23301;DHT22;11819;51.394;12.340;2022-12-20T05:46:12;5.30;96.50
23301;DHT22;11819;51.394;12.340;2022-12-20T05:48:49;5.40;96.50
23301;DHT22;11819;51.394;12.340;2022-12-20T05:51:15;5.40;96.40
23301;DHT22;11819;51.394;12.340;2022-12-20T05:54:01;5.40;96.40
23301;DHT22;11819;51.394;12.340;2022-12-20T05:56:59;5.40;96.40
23301;DHT22;11819;51.394;12.340;2022-12-20T05:59:32;5.40;96.40
23301;DHT22;11819;51.394;12.340;2022-12-20T06:01:58;5.50;96.40
23301;DHT22;11819;51.394;12.340;2022-12-20T06:04:25;5.50;96.40
23301;DHT22;11819;51.394;12.340;2022-12-20T06:06:51;5.50;96.40
23301;DHT22;11819;51.394;12.340;2022-12-20T06:09:18;5.50;96.40
23301;DHT22;11819;51.394;12.340;2022-12-20T06:11:51;5.50;96.30
23301;DHT22;11819;51.394;12.340;2022-12-20T06:14:17;5.50;96.30
23301;DHT22;11819;51.394;12.340;2022-12-20T06:16:46;5.50;96.20
23301;DHT22;11819;51.394;12.340;2022-12-20T06:19:13;5.50;96.20
23301;DHT22;11819;51.394;12.340;2022-12-20T06:21:39;5.50;96.20
23301;DHT22;11819;51.394;12.340;2022-12-20T06:24:07;5.50;96.20
23301;DHT22;11819;51.394;12.340;2022-12-20T06:26:36;5.50;96.20
23301;DHT22;11819;51.394;12.340;2022-12-20T06:29:05;5.50;96.10
23301;DHT22;11819;51.394;12.340;2022-12-20T06:31:47;5.50;96.10
23301;DHT22;11819;51.394;12.340;2022-12-20T06:34:13;5.50;96.10
23301;DHT22;11819;51.394;12.340;2022-12-20T06:36:40;5.60;96.10
23301;DHT22;11819;51.394;12.340;2022-12-20T06:39:11;5.60;96.20
23301;DHT22;11819;51.394;12.340;2022-12-20T06:41:45;5.60;96.10
23301;DHT22;11819;51.394;12.340;2022-12-20T06:44:11;5.60;96.10
23301;DHT22;11819;51.394;12.340;2022-12-20T06:46:36;5.60;96.00
23301;DHT22;11819;51.394;12.340;2022-12-20T06:49:02;5.60;96.00
23301;DHT22;11819;51.394;12.340;2022-12-20T06:51:28;5.60;95.90
23301;DHT22;11819;51.394;12.340;2022-12-20T06:53:54;5.60;95.90
23301;DHT22;11819;51.394;12.340;2022-12-20T06:56:21;5.60;95.90
23301;DHT22;11819;51.394;12.340;2022-12-20T06:58:46;5.60;95.90
23301;DHT22;11819;51.394;12.340;2022-12-20T07:01:12;5.60;95.80
23301;DHT22;11819;51.394;12.340;2022-12-20T07:03:38;5.60;95.80
23301;DHT22;11819;51.394;12.340;2022-12-20T07:06:04;5.60;95.80
23301;DHT22;11819;51.394;12.340;2022-12-20T07:08:30;5.60;95.70
23301;DHT22;11819;51.394;12.340;2022-12-20T07:11:02;5.70;95.70
23301;DHT22;11819;51.394;12.340;2022-12-20T07:13:28;5.70;95.70
23301;DHT22;11819;51.394;12.340;2022-12-20T07:15:59;5.70;95.70
23301;DHT22;11819;51.394;12.340;2022-12-20T07:18:26;5.70;95.60
23301;DHT22;11819;51.394;12.340;2022-12-20T07:20:51;5.70;95.60
23301;DHT22;11819;51.394;12.340;2022-12-20T07:23:17;5.70;95.50
23301;DHT22;11819;51.394;12.340;2022-12-20T07:25:51;5.70;95.40
23301;DHT22;11819;51.394;12.340;2022-12-20T07:28:16;5.70;95.50
23301;DHT22;11819;51.394;12.340;2022-12-20T07:30:42;5.70;95.50
23301;DHT22;11819;51.394;12.340;2022-12-20T07:33:08;5.70;95.40
23301;DHT22;11819;51.394;12.340;2022-12-20T07:35:33;5.80;95.40
23301;DHT22;11819;51.394;12.340;2022-12-20T07:37:59;5.80;95.30
23301;DHT22;11819;51.394;12.340;2022-12-20T07:40:25;5.80;95.30
23301;DHT22;11819;51.394;12.340;2022-12-20T07:42:50;5.80;95.30
23301;DHT22;11819;51.394;12.340;2022-12-20T07:45:17;5.80;95.20
23301;DHT22;11819;51.394;12.340;2022-12-20T07:47:42;5.90;95.10
23301;DHT22;11819;51.394;12.340;2022-12-20T07:50:08;5.90;95.10
23301;DHT22;11819;51.394;12.340;2022-12-20T07:52:35;5.90;95.00
23301;DHT22;11819;51.394;12.340;2022-12-20T07:55:06;5.90;94.90
23301;DHT22;11819;51.394;12.340;2022-12-20T07:57:52;5.90;94.90
23301;DHT22;11819;51.394;12.340;2022-12-20T08:00:19;5.90;94.80
23301;DHT22;11819;51.394;12.340;2022-12-20T08:03:17;5.90;94.80
23301;DHT22;11819;51.394;12.340;2022-12-20T08:05:47;5.90;94.70
23301;DHT22;11819;51.394;12.340;2022-12-20T08:08:14;5.90;94.60
23301;DHT22;11819;51.394;12.340;2022-12-20T08:10:40;5.90;94.60
23301;DHT22;11819;51.394;12.340;2022-12-20T08:13:06;5.90;94.50
23301;DHT22;11819;51.394;12.340;2022-12-20T08:15:33;5.90;94.40
23301;DHT22;11819;51.394;12.340;2022-12-20T08:17:59;5.90;94.40
23301;DHT22;11819;51.394;12.340;2022-12-20T08:20:25;5.90;94.30
23301;DHT22;11819;51.394;12.340;2022-12-20T08:22:50;6.00;94.30
23301;DHT22;11819;51.394;12.340;2022-12-20T08:25:16;5.90;94.20
23301;DHT22;11819;51.394;12.340;2022-12-20T08:27:42;5.90;94.20
23301;DHT22;11819;51.394;12.340;2022-12-20T08:30:08;5.90;94.20
23301;DHT22;11819;51.394;12.340;2022-12-20T08:32:35;5.90;94.10
23301;DHT22;11819;51.394;12.340;2022-12-20T08:35:01;5.90;94.10
23301;DHT22;11819;51.394;12.340;2022-12-20T08:37:27;5.90;94.00
23301;DHT22;11819;51.394;12.340;2022-12-20T08:39:52;5.90;94.00
23301;DHT22;11819;51.394;12.340;2022-12-20T08:42:18;5.90;93.90
23301;DHT22;11819;51.394;12.340;2022-12-20T08:44:44;5.90;93.90
23301;DHT22;11819;51.394;12.340;2022-12-20T08:47:09;5.90;93.80
23301;DHT22;11819;51.394;12.340;2022-12-20T08:49:35;5.90;93.80
23301;DHT22;11819;51.394;12.340;2022-12-20T08:52:01;5.90;93.80
23301;DHT22;11819;51.394;12.340;2022-12-20T08:54:27;5.90;93.90
23301;DHT22;11819;51.394;12.340;2022-12-20T08:56:53;5.90;93.80
23301;DHT22;11819;51.394;12.340;2022-12-20T08:59:19;5.90;93.90
23301;DHT22;11819;51.394;12.340;2022-12-20T09:01:44;5.90;93.90
23301;DHT22;11819;51.394;12.340;2022-12-20T09:04:11;5.90;93.80
23301;DHT22;11819;51.394;12.340;2022-12-20T09:06:37;5.90;93.90
23301;DHT22;11819;51.394;12.340;2022-12-20T09:09:03;6.00;93.90
23301;DHT22;11819;51.394;12.340;2022-12-20T09:11:29;6.00;93.90
23301;DHT22;11819;51.394;12.340;2022-12-20T09:13:57;6.00;93.90
23301;DHT22;11819;51.394;12.340;2022-12-20T09:16:26;6.00;93.90
23301;DHT22;11819;51.394;12.340;2022-12-20T09:18:55;6.00;93.90
23301;DHT22;11819;51.394;12.340;2022-12-20T09:21:21;6.10;93.90
23301;DHT22;11819;51.394;12.340;2022-12-20T09:23:50;6.10;93.90
23301;DHT22;11819;51.394;12.340;2022-12-20T09:26:17;6.10;93.90
23301;DHT22;11819;51.394;12.340;2022-12-20T09:28:43;6.10;93.90
23301;DHT22;11819;51.394;12.340;2022-12-20T09:31:14;6.20;93.90
23301;DHT22;11819;51.394;12.340;2022-12-20T09:33:41;6.20;93.90
23301;DHT22;11819;51.394;12.340;2022-12-20T09:36:14;6.20;93.90
23301;DHT22;11819;51.394;12.340;2022-12-20T09:38:42;6.20;93.80
23301;DHT22;11819;51.394;12.340;2022-12-20T09:41:21;6.30;93.70
23301;DHT22;11819;51.394;12.340;2022-12-20T09:43:49;6.30;93.70
23301;DHT22;11819;51.394;12.340;2022-12-20T09:46:15;6.30;93.70
23301;DHT22;11819;51.394;12.340;2022-12-20T09:48:42;6.30;93.60
23301;DHT22;11819;51.394;12.340;2022-12-20T09:51:45;6.30;93.70
23301;DHT22;11819;51.394;12.340;2022-12-20T09:57:02;6.30;93.70
23301;DHT22;11819;51.394;12.340;2022-12-20T09:59:33;6.30;93.70
23301;DHT22;11819;51.394;12.340;2022-12-20T10:02:00;6.30;93.80
23301;DHT22;11819;51.394;12.340;2022-12-20T10:04:27;6.30;93.80
23301;DHT22;11819;51.394;12.340;2022-12-20T10:12:45;6.40;93.60
23301;DHT22;11819;51.394;12.340;2022-12-20T10:15:34;6.40;93.60
23301;DHT22;11819;51.394;12.340;2022-12-20T10:18:31;6.40;93.50
23301;DHT22;11819;51.394;12.340;2022-12-20T10:21:19;6.40;93.40
23301;DHT22;11819;51.394;12.340;2022-12-20T10:24:37;6.50;93.40
23301;DHT22;11819;51.394;12.340;2022-12-20T10:26:38;6.50;93.40
23301;DHT22;11819;51.394;12.340;2022-12-20T10:29:04;6.50;93.20
23301;DHT22;11819;51.394;12.340;2022-12-20T10:31:29;6.50;93.10
23301;DHT22;11819;51.394;12.340;2022-12-20T10:33:55;6.60;93.00
23301;DHT22;11819;51.394;12.340;2022-12-20T10:38:57;6.60;92.60
23301;DHT22;11819;51.394;12.340;2022-12-20T10:41:28;6.60;92.50
23301;DHT22;11819;51.394;12.340;2022-12-20T10:43:59;6.60;92.40
23301;DHT22;11819;51.394;12.340;2022-12-20T10:46:40;6.60;92.40
23301;DHT22;11819;51.394;12.340;2022-12-20T10:49:32;6.60;92.30
23301;DHT22;11819;51.394;12.340;2022-12-20T10:52:16;6.60;92.10
23301;DHT22;11819;51.394;12.340;2022-12-20T10:54:45;6.60;91.70
23301;DHT22;11819;51.394;12.340;2022-12-20T10:57:21;6.60;91.50
23301;DHT22;11819;51.394;12.340;2022-12-20T10:59:56;6.70;91.50
23301;DHT22;11819;51.394;12.340;2022-12-20T11:02:35;6.70;91.30
23301;DHT22;11819;51.394;12.340;2022-12-20T11:11:11;6.70;91.00
23301;DHT22;11819;51.394;12.340;2022-12-20T11:13:38;6.70;90.80
23301;DHT22;11819;51.394;12.340;2022-12-20T11:16:04;6.80;90.80
23301;DHT22;11819;51.394;12.340;2022-12-20T11:18:42;6.80;90.80
23301;DHT22;11819;51.394;12.340;2022-12-20T11:24:12;6.80;90.70
23301;DHT22;11819;51.394;12.340;2022-12-20T11:32:41;6.80;90.60
23301;DHT22;11819;51.394;12.340;2022-12-20T11:35:26;6.80;90.50
23301;DHT22;11819;51.394;12.340;2022-12-20T11:38:16;6.80;90.60
23301;DHT22;11819;51.394;12.340;2022-12-20T11:44:08;6.80;90.50
23301;DHT22;11819;51.394;12.340;2022-12-20T11:52:20;6.80;90.50
23301;DHT22;11819;51.394;12.340;2022-12-20T11:54:57;6.80;90.50
23301;DHT22;11819;51.394;12.340;2022-12-20T11:57:30;6.80;90.50
23301;DHT22;11819;51.394;12.340;2022-12-20T11:59:59;6.80;90.60
23301;DHT22;11819;51.394;12.340;2022-12-20T12:02:49;6.80;90.70
23301;DHT22;11819;51.394;12.340;2022-12-20T12:05:20;6.80;90.80
23301;DHT22;11819;51.394;12.340;2022-12-20T12:07:53;6.90;90.80
23301;DHT22;11819;51.394;12.340;2022-12-20T12:10:33;6.80;90.80
23301;DHT22;11819;51.394;12.340;2022-12-20T12:13:14;6.90;90.90
23301;DHT22;11819;51.394;12.340;2022-12-20T12:16:00;6.80;90.90
23301;DHT22;11819;51.394;12.340;2022-12-20T12:18:30;6.90;90.90
23301;DHT22;11819;51.394;12.340;2022-12-20T12:26:37;6.90;91.00
23301;DHT22;11819;51.394;12.340;2022-12-20T12:29:12;6.90;91.00
23301;DHT22;11819;51.394;12.340;2022-12-20T12:31:48;6.90;91.00
23301;DHT22;11819;51.394;12.340;2022-12-20T12:40:02;6.80;90.80
23301;DHT22;11819;51.394;12.340;2022-12-20T12:43:17;6.80;90.80
23301;DHT22;11819;51.394;12.340;2022-12-20T12:45:30;6.80;90.90
23301;DHT22;11819;51.394;12.340;2022-12-20T12:48:13;6.80;90.80
23301;DHT22;11819;51.394;12.340;2022-12-20T12:50:46;6.80;90.80
23301;DHT22;11819;51.394;12.340;2022-12-20T12:53:16;6.80;90.80
23301;DHT22;11819;51.394;12.340;2022-12-20T12:55:49;6.80;90.80
23301;DHT22;11819;51.394;12.340;2022-12-20T13:00:49;6.80;90.80
23301;DHT22;11819;51.394;12.340;2022-12-20T13:03:34;6.80;90.70
23301;DHT22;11819;51.394;12.340;2022-12-20T13:11:30;6.80;90.60
23301;DHT22;11819;51.394;12.340;2022-12-20T13:16:51;6.80;90.40
23301;DHT22;11819;51.394;12.340;2022-12-20T13:19:35;6.80;90.30
23301;DHT22;11819;51.394;12.340;2022-12-20T13:40:37;6.80;90.00
23301;DHT22;11819;51.394;12.340;2022-12-20T13:45:46;6.80;90.00
23301;DHT22;11819;51.394;12.340;2022-12-20T13:48:16;6.80;90.00
23301;DHT22;11819;51.394;12.340;2022-12-20T13:50:49;6.70;89.70
23301;DHT22;11819;51.394;12.340;2022-12-20T13:53:19;6.80;89.40
23301;DHT22;11819;51.394;12.340;2022-12-20T13:55:45;6.70;89.00
23301;DHT22;11819;51.394;12.340;2022-12-20T13:58:23;6.70;88.90
23301;DHT22;11819;51.394;12.340;2022-12-20T14:00:50;6.70;88.80
23301;DHT22;11819;51.394;12.340;2022-12-20T14:03:26;6.70;88.80
23301;DHT22;11819;51.394;12.340;2022-12-20T14:06:03;6.70;88.80
23301;DHT22;11819;51.394;12.340;2022-12-20T14:08:36;6.70;88.70
23301;DHT22;11819;51.394;12.340;2022-12-20T14:11:14;6.70;88.60
23301;DHT22;11819;51.394;12.340;2022-12-20T14:13:41;6.60;88.30
23301;DHT22;11819;51.394;12.340;2022-12-20T14:16:15;6.60;88.30
23301;DHT22;11819;51.394;12.340;2022-12-20T14:18:40;6.60;88.30
23301;DHT22;11819;51.394;12.340;2022-12-20T14:21:07;6.60;88.20
23301;DHT22;11819;51.394;12.340;2022-12-20T14:26:02;6.60;88.40
23301;DHT22;11819;51.394;12.340;2022-12-20T14:31:00;6.60;88.50
23301;DHT22;11819;51.394;12.340;2022-12-20T14:33:36;6.60;89.60
23301;DHT22;11819;51.394;12.340;2022-12-20T14:36:29;6.50;88.80
23301;DHT22;11819;51.394;12.340;2022-12-20T14:38:58;6.60;89.00
23301;DHT22;11819;51.394;12.340;2022-12-20T14:41:39;6.60;89.10
23301;DHT22;11819;51.394;12.340;2022-12-20T14:44:20;6.60;89.30
23301;DHT22;11819;51.394;12.340;2022-12-20T14:47:02;6.60;89.20
23301;DHT22;11819;51.394;12.340;2022-12-20T14:49:29;6.60;89.30
23301;DHT22;11819;51.394;12.340;2022-12-20T14:57:23;6.60;89.40
23301;DHT22;11819;51.394;12.340;2022-12-20T15:00:01;6.60;89.50
23301;DHT22;11819;51.394;12.340;2022-12-20T15:02:39;6.60;89.60
23301;DHT22;11819;51.394;12.340;2022-12-20T15:05:31;6.60;89.70
23301;DHT22;11819;51.394;12.340;2022-12-20T15:07:54;6.60;89.70
23301;DHT22;11819;51.394;12.340;2022-12-20T15:10:19;6.60;89.80
23301;DHT22;11819;51.394;12.340;2022-12-20T15:12:45;6.60;90.00
23301;DHT22;11819;51.394;12.340;2022-12-20T15:15:14;6.60;90.00
23301;DHT22;11819;51.394;12.340;2022-12-20T15:17:40;6.60;90.00
23301;DHT22;11819;51.394;12.340;2022-12-20T15:20:11;6.60;90.00
23301;DHT22;11819;51.394;12.340;2022-12-20T15:22:37;6.60;90.00
23301;DHT22;11819;51.394;12.340;2022-12-20T15:25:13;6.70;90.00
23301;DHT22;11819;51.394;12.340;2022-12-20T15:27:40;6.60;90.00
23301;DHT22;11819;51.394;12.340;2022-12-20T15:30:11;6.60;90.00
23301;DHT22;11819;51.394;12.340;2022-12-20T15:32:38;6.60;90.00
23301;DHT22;11819;51.394;12.340;2022-12-20T15:35:10;6.60;90.00
23301;DHT22;11819;51.394;12.340;2022-12-20T15:37:37;6.60;90.00
23301;DHT22;11819;51.394;12.340;2022-12-20T15:40:02;6.70;90.00
23301;DHT22;11819;51.394;12.340;2022-12-20T15:42:28;6.70;90.00
23301;DHT22;11819;51.394;12.340;2022-12-20T15:44:54;6.70;90.00
23301;DHT22;11819;51.394;12.340;2022-12-20T15:47:19;6.70;90.10
23301;DHT22;11819;51.394;12.340;2022-12-20T15:49:45;6.70;90.00
23301;DHT22;11819;51.394;12.340;2022-12-20T15:52:22;6.70;90.10
23301;DHT22;11819;51.394;12.340;2022-12-20T15:54:48;6.60;90.00
23301;DHT22;11819;51.394;12.340;2022-12-20T15:57:14;6.70;90.00
23301;DHT22;11819;51.394;12.340;2022-12-20T15:59:40;6.70;90.00
23301;DHT22;11819;51.394;12.340;2022-12-20T16:02:24;6.60;90.00
23301;DHT22;11819;51.394;12.340;2022-12-20T16:04:51;6.70;90.00
23301;DHT22;11819;51.394;12.340;2022-12-20T16:07:17;6.60;90.00
23301;DHT22;11819;51.394;12.340;2022-12-20T16:09:42;6.60;90.00
23301;DHT22;11819;51.394;12.340;2022-12-20T16:12:16;6.60;90.00
23301;DHT22;11819;51.394;12.340;2022-12-20T16:14:43;6.60;90.00
23301;DHT22;11819;51.394;12.340;2022-12-20T16:17:12;6.60;90.00
23301;DHT22;11819;51.394;12.340;2022-12-20T16:19:38;6.60;90.00
23301;DHT22;11819;51.394;12.340;2022-12-20T16:22:04;6.60;90.00
23301;DHT22;11819;51.394;12.340;2022-12-20T16:24:30;6.60;90.00
23301;DHT22;11819;51.394;12.340;2022-12-20T16:26:55;6.60;90.00
23301;DHT22;11819;51.394;12.340;2022-12-20T16:29:21;6.60;90.00
23301;DHT22;11819;51.394;12.340;2022-12-20T16:31:47;6.60;90.00
23301;DHT22;11819;51.394;12.340;2022-12-20T16:34:16;6.60;89.80
23301;DHT22;11819;51.394;12.340;2022-12-20T16:36:42;6.50;89.90
23301;DHT22;11819;51.394;12.340;2022-12-20T16:39:08;6.50;89.90
23301;DHT22;11819;51.394;12.340;2022-12-20T16:41:39;6.50;89.90
23301;DHT22;11819;51.394;12.340;2022-12-20T16:44:09;6.50;89.90
23301;DHT22;11819;51.394;12.340;2022-12-20T16:46:36;6.60;90.30
23301;DHT22;11819;51.394;12.340;2022-12-20T16:49:02;6.60;89.90
23301;DHT22;11819;51.394;12.340;2022-12-20T16:51:38;6.50;89.80
23301;DHT22;11819;51.394;12.340;2022-12-20T16:54:06;6.60;89.80
23301;DHT22;11819;51.394;12.340;2022-12-20T16:56:33;6.50;89.70
23301;DHT22;11819;51.394;12.340;2022-12-20T16:58:59;6.50;89.80
23301;DHT22;11819;51.394;12.340;2022-12-20T17:01:29;6.60;89.90
23301;DHT22;11819;51.394;12.340;2022-12-20T17:03:55;6.60;89.80
23301;DHT22;11819;51.394;12.340;2022-12-20T17:06:21;6.50;89.50
23301;DHT22;11819;51.394;12.340;2022-12-20T17:08:47;6.50;89.70
23301;DHT22;11819;51.394;12.340;2022-12-20T17:11:22;6.50;89.70
23301;DHT22;11819;51.394;12.340;2022-12-20T17:13:50;6.50;89.70
23301;DHT22;11819;51.394;12.340;2022-12-20T17:16:16;6.50;89.70
23301;DHT22;11819;51.394;12.340;2022-12-20T17:18:43;6.50;89.70
23301;DHT22;11819;51.394;12.340;2022-12-20T17:23:47;6.50;89.60
23301;DHT22;11819;51.394;12.340;2022-12-20T17:26:22;6.50;89.50
23301;DHT22;11819;51.394;12.340;2022-12-20T17:28:52;6.50;89.50
23301;DHT22;11819;51.394;12.340;2022-12-20T17:31:26;6.50;89.50
23301;DHT22;11819;51.394;12.340;2022-12-20T17:33:53;6.50;89.50
23301;DHT22;11819;51.394;12.340;2022-12-20T17:36:19;6.60;89.70
23301;DHT22;11819;51.394;12.340;2022-12-20T17:38:44;6.60;89.60
23301;DHT22;11819;51.394;12.340;2022-12-20T17:43:47;6.50;89.40